M I D A S
Marine Information and Data Acquisition System
Tripno 728 of the Zeeleeuw from 2004-06-03 06:30:24 to 2004-06-03 12:07:08
Back to CruiseResearch ActivitiesStationsMapUnderway DataData graphs

EquipmentUnitsComment
TimeDGPSUTC
LatitudeDGPSDM.mWGS84
LongitudeDGPSDM.mWGS84
HeadingGyrodeg 
SOGDGPSknotsSpeed over ground
COGDGPSdegCourse over ground
DepthEcho soundermeters200 kHz
Missing or incorrect values are displayed as -999
Navigation data collected by the RV Zeeleeuw from 2004-06-03 06:30:24 to 2004-06-03 12:07:08
Time Latitude Longitude Heading SOG COG Depth
2004-06-03 06:31:29 51°13.638 2°55.941 120 5.3 295 -999
2004-06-03 06:32:30 51°13.675 2°55.81 113 5.3 289 -999
2004-06-03 06:33:29 51°13.69 2°55.754 79.7 1.4 55 12.1
2004-06-03 06:34:29 51°13.699 2°55.768 37.4 1.6 219 -999
2004-06-03 06:35:30 51°13.698 2°55.745   3.9 350 -999
2004-06-03 06:36:29 51°13.778 2°55.676 337.5 7.1 334 8.1
2004-06-03 06:37:28 51°13.898 2°55.596 343.5 8.3 337 8.2
2004-06-03 06:38:29 51°14.033 2°55.51 343.4 8.7 337 9.5
2004-06-03 06:39:29 51°14.169 2°55.388 333.1 10.3 327 -999
2004-06-03 06:40:29 51°14.296 2°55.192 316.4 11.1 311 9.5
2004-06-03 06:41:29 51°14.427 2°54.955 312.4 12.3 301 9.2
2004-06-03 06:42:29 51°14.47 2°54.635 274.5 12.1 264 9.3
2004-06-03 06:43:29 51°14.427 2°54.412 251.7 6.6 245 8.6
2004-06-03 06:44:29 51°14.391 2°54.284 263.4 4.4 250 8
2004-06-03 06:45:29 51°14.37 2°54.187 269.4 3.5 250 8
2004-06-03 06:46:29 51°14.352 2°54.108 274.4 2.9 251 8
2004-06-03 06:47:29 51°14.333 2°54.017 263.8 6.7 249 8
2004-06-03 06:48:29 51°14.243 2°53.77 243 12.2 235 7.9
2004-06-03 06:49:29 51°14.121 2°53.472 242.1 14.2 236 7.9
2004-06-03 06:50:29 51°13.991 2°53.151 240.7 14.5 235 8.1
2004-06-03 06:51:29 51°13.868 2°52.916 230.4 7.9 229 8.7
2004-06-03 06:52:28 51°13.829 2°52.818 275.7 1.4 192 8.8
2004-06-03 06:53:29 51°13.808 2°52.781 265.9 2.5 239 8.8
2004-06-03 06:54:29 51°13.785 2°52.726 269.9 1.8 223 8.9
2004-06-03 06:55:29 51°13.766 2°52.721 262.9 1.2 199 8.8
2004-06-03 06:56:29 51°13.747 2°52.709 252.6 1.3 208 8.7
2004-06-03 06:57:29 51°13.726 2°52.687 247.8 1.6 219 8.6
2004-06-03 06:58:29 51°13.702 2°52.652 248.8 2.5 229 8.7
2004-06-03 06:59:28 51°13.673 2°52.59 253 3.4 238 8.6
2004-06-03 07:00:28 51°13.641 2°52.509 250.4 3.6 237 8.7
2004-06-03 07:01:28 51°13.607 2°52.428 249.2 3.6 236 8.8
2004-06-03 07:02:31 51°13.574 2°52.349 250.3 3.3 234 8.8
2004-06-03 07:03:32 51°13.545 2°52.278 261.5 3 240 8.8
2004-06-03 07:04:31 51°13.523 2°52.215 267.6 2.7 242 8.9
2004-06-03 07:05:30 51°13.501 2°52.156 267.7 2.5 238 8.9
2004-06-03 07:06:32 51°13.476 2°52.098 267 2.5 235 8.9
2004-06-03 07:07:30 51°13.454 2°52.047 264.5 2.4 232 9
2004-06-03 07:08:32 51°13.429 2°51.995 261.4 2.3 233 8.9
2004-06-03 07:09:32 51°13.406 2°51.946 262.2 2.3 231 8.9
2004-06-03 07:10:32 51°13.382 2°51.897 262 2.3 233 8.9
2004-06-03 07:11:32 51°13.357 2°51.849 262 2.4 228 8.9
2004-06-03 07:12:32 51°13.333 2°51.8 263 2.3 232 8.9
2004-06-03 07:13:30 51°13.311 2°51.754 264 2.3 232 8.9
2004-06-03 07:14:32 51°13.288 2°51.704 267.9 2.2 233 8.7
2004-06-03 07:15:32 51°13.267 2°51.657 269.3 2.2 234 8.8
2004-06-03 07:16:32 51°13.245 2°51.611 270.9 2.2 233 8.7
2004-06-03 07:17:32 51°13.223 2°51.564 270.9 2.3 229 8.7
2004-06-03 07:18:32 51°13.202 2°51.517 273.3 2.1 234 8.8
2004-06-03 07:19:32 51°13.182 2°51.468 275.6 2.7 244 8.8
2004-06-03 07:20:32 51°13.125 2°51.244 248.7 13.6 243 8.7
2004-06-03 07:21:32 51°13.01 2°50.904 245.4 14.9 241 8.6
2004-06-03 07:22:32 51°12.888 2°50.553 246.3 15.2 240 8.7
2004-06-03 07:23:32 51°12.771 2°50.197 249.3 15.2 244 8.8
2004-06-03 07:24:32 51°12.65 2°49.842 246.9 15.2 240 8.8
2004-06-03 07:25:32 51°12.537 2°49.481 249.8 15.4 245 9
2004-06-03 07:26:32 51°12.421 2°49.114 248.3 15.3 241 9.1
2004-06-03 07:27:32 51°12.3 2°48.753 245.1 15.6 243 9.2
2004-06-03 07:28:32 51°12.181 2°48.389 246.5 15.4 242 9.3
2004-06-03 07:29:32 51°12.06 2°48.026 248.5 15.5 245 9.4
2004-06-03 07:30:32 51°11.943 2°47.659 246.2 15.5 240 9.4
2004-06-03 07:31:36 51°11.815 2°47.271 247.7 15.6 245 9.2
2004-06-03 07:32:37 51°11.694 2°46.902 247.1 15.4 243 9
2004-06-03 07:33:37 51°11.575 2°46.541 245.7 15.4 243 9
2004-06-03 07:34:37 51°11.462 2°46.176 246.3 15.4 244 9
2004-06-03 07:35:37 51°11.346 2°45.813 248.2 15.3 243 8.9
2004-06-03 07:36:37 51°11.234 2°45.447 246.3 15.4 245 8.7
2004-06-03 07:37:37 51°11.126 2°45.081 250.1 15.3 245 8.5
2004-06-03 07:38:37 51°11.008 2°44.727 252 15 249 8.3
2004-06-03 07:39:37 51°10.932 2°44.343 254 15.3 251 8.5
2004-06-03 07:40:36 51°10.85 2°43.969 259.5 15.2 253 8.5
2004-06-03 07:41:37 51°10.762 2°43.583 254.3 15.2 250 8.5
2004-06-03 07:42:37 51°10.685 2°43.203 252.8 15.1 248 8.5
2004-06-03 07:43:37 51°10.606 2°42.825 256.9 15.2 251 8.6
2004-06-03 07:44:37 51°10.52 2°42.447 256.9 15.1 253 8.7
2004-06-03 07:45:37 51°10.439 2°42.066 253.3 15.3 250 8.8
2004-06-03 07:46:37 51°10.35 2°41.686 254.6 15.2 250 9
2004-06-03 07:47:37 51°10.27 2°41.304 255.8 15.2 250 9.1
2004-06-03 07:48:37 51°10.184 2°40.926 254.7 15.2 251 9.3
2004-06-03 07:49:37 51°10.102 2°40.546 255.4 15.1 253 9.4
2004-06-03 07:50:37 51°10.02 2°40.168 254.2 15.2 251 9.6
2004-06-03 07:51:37 51°9.937 2°39.791 254 15.1 249 9.7
2004-06-03 07:52:37 51°9.855 2°39.413 255 15.2 252 9.8
2004-06-03 07:53:36 51°9.817 2°39.029 281.6 14.9 277 10.4
2004-06-03 07:54:37 51°9.85 2°38.628 284.3 15.1 277 12.1
2004-06-03 07:55:36 51°9.88 2°38.24 284.7 15 277 14.1
2004-06-03 07:56:38 51°9.91 2°37.83 284.5 15.1 275 15.6
2004-06-03 07:57:38 51°9.821 2°37.465 236.3 15.3 233 15.6
2004-06-03 07:58:37 51°9.662 2°37.148 232.2 15.5 231 15.1
2004-06-03 07:59:38 51°9.498 2°36.821 232.7 15.6 232 14.9
2004-06-03 08:00:38 51°9.391 2°36.453 260.3 15.4 259 14.7
2004-06-03 08:01:36 51°9.394 2°36.066 291.1 14.9 282 15.3
2004-06-03 08:02:37 51°9.511 2°35.725 318 14.3 307 16.5
2004-06-03 08:03:38 51°9.682 2°35.461 330.3 14.1 318 17.6
2004-06-03 08:04:37 51°9.866 2°35.253 344.4 13.3 339 16.5
2004-06-03 08:05:37 51°10.076 2°35.225 12.2 12.5 5 10
2004-06-03 08:06:38 51°10.28 2°35.307 30.8 12.4 26 10.5
2004-06-03 08:07:37 51°10.462 2°35.453 33.1 12.3 28 9.3
2004-06-03 08:08:37 51°10.632 2°35.637 38.6 12.4 34 9.3
2004-06-03 08:09:37 51°10.802 2°35.823 38.9 12.5 34 9.5
2004-06-03 08:10:38 51°10.978 2°36.014 39.6 12.4 34 9.9
2004-06-03 08:11:37 51°11.145 2°36.2 39.8 12.5 34 10.1
2004-06-03 08:12:42 51°11.33 2°36.404 40.3 12.4 35 10.3
2004-06-03 08:13:41 51°11.496 2°36.588 40.5 12.3 35 10.5
2004-06-03 08:14:42 51°11.668 2°36.778 40.3 12.4 35 10.3
2004-06-03 08:15:41 51°11.835 2°36.962 40 12.4 35 10.4
2004-06-03 08:16:43 51°12.013 2°37.145 36.7 12.4 30 10.6
2004-06-03 08:17:43 51°12.188 2°37.313 37.1 12.4 31 10.6
2004-06-03 08:18:43 51°12.364 2°37.481 36.8 12.4 31 10.8
2004-06-03 08:19:45 51°12.545 2°37.656 37.4 12.4 31 11.6
2004-06-03 08:20:45 51°12.721 2°37.825 37.2 12.4 31 12.1
2004-06-03 08:21:48 51°12.905 2°38.001 36.9 12.4 31 12.6
2004-06-03 08:22:49 51°13.084 2°38.174 37.1 12.5 32 13.2
2004-06-03 08:23:49 51°13.262 2°38.346 37.4 12.5 31 13.4
2004-06-03 08:24:53 51°13.452 2°38.529 37.1 12.5 31 13.8
2004-06-03 08:25:57 51°13.642 2°38.714 37.7 12.6 32 13.8
2004-06-03 08:27:03 51°13.839 2°38.905 37.4 12.6 32 13.4
2004-06-03 08:28:02 51°14.015 2°39.077 37.7 12.6 32 12.8
2004-06-03 08:29:03 51°14.215 2°39.159 9.1 12.6 356 12.2
2004-06-03 08:30:03 51°14.41 2°39.013 333.1 13.5 320 15.9
2004-06-03 08:31:01 51°14.51 2°38.699 295.9 14.3 281 17
2004-06-03 08:32:02 51°14.477 2°38.308 261.4 15.1 253 16.4
2004-06-03 08:33:01 51°14.391 2°37.935 258.2 15.2 250 15.2
2004-06-03 08:34:01 51°14.304 2°37.555 256 15.3 250 13.8
2004-06-03 08:35:02 51°14.219 2°37.166 258.9 15.2 252 13.3
2004-06-03 08:36:02 51°14.139 2°36.784 258.9 14.9 252 12.6
2004-06-03 08:37:02 51°14.063 2°36.405 259.2 14.9 254 13.4
2004-06-03 08:38:02 51°13.979 2°36.035 245.7 14.7 239 13.7
2004-06-03 08:39:05 51°13.818 2°35.708 234 14.9 229 14.6
2004-06-03 08:40:11 51°13.646 2°35.368 235.9 14.9 232 11.4
2004-06-03 08:41:11 51°13.494 2°35.059 235.4 14.7 231 14.7
2004-06-03 08:42:09 51°13.341 2°34.762 233.3 15.1 229 15.3
2004-06-03 08:43:10 51°13.181 2°34.449 233 15 230 15.5
2004-06-03 08:44:12 51°13.014 2°34.127 233.5 15.2 230 15.3
2004-06-03 08:45:17 51°12.843 2°33.789 236.4 15 231 15.1
2004-06-03 08:46:17 51°12.685 2°33.481 235.5 15 231 14.9
2004-06-03 08:47:15 51°12.575 2°33.145 254 14.8 248 14.5
2004-06-03 08:48:21 51°12.462 2°32.753 251.5 14.9 246 15.3
2004-06-03 08:49:22 51°12.359 2°32.384 252.8 15 247 16.6
2004-06-03 08:50:25 51°12.258 2°32.004 253.3 15.1 247 18.2
2004-06-03 08:51:24 51°12.162 2°31.643 255.4 15 250 20.2
2004-06-03 08:52:32 51°12.062 2°31.219 256.9 15 250 21.3
2004-06-03 08:53:36 51°11.968 2°30.817 256 15.3 251 22.5
2004-06-03 08:54:36 51°11.85 2°30.457 246 15.4 240 22.6
2004-06-03 08:55:36 51°11.722 2°30.106 243.5 15.4 239 22.9
2004-06-03 08:56:35 51°11.598 2°29.757 246.6 15.4 246 22.7
2004-06-03 08:57:40 51°11.547 2°29.329 271.3 15.3 264 24
2004-06-03 08:58:41 51°11.517 2°28.922 271.9 15.3 263 23.8
2004-06-03 08:59:41 51°11.477 2°28.521 261.1 15.6 252 21.9
2004-06-03 09:00:41 51°11.355 2°28.16 238.8 15.6 235 22.5
2004-06-03 09:01:41 51°11.207 2°27.819 238.3 15.6 235 22.4
2004-06-03 09:02:41 51°11.062 2°27.48 240.2 15.3 236 21.4
2004-06-03 09:03:41 51°10.926 2°27.132 247 15.4 241 21.3
2004-06-03 09:04:41 51°10.823 2°26.763 250.9 15.2 246 19.8
2004-06-03 09:05:41 51°10.721 2°26.395 253.8 15.3 246 18.8
2004-06-03 09:06:41 51°10.625 2°26.022 252.5 15.2 247 18.2
2004-06-03 09:07:41 51°10.572 2°25.639 276.4 14.7 271 17.5
2004-06-03 09:08:41 51°10.675 2°25.317 323.5 13.4 320 15.7
2004-06-03 09:09:41 51°10.883 2°25.221 2.8 13.2 356 14
2004-06-03 09:10:41 51°11.106 2°25.206 3.7 13.5 356 20.5
2004-06-03 09:11:41 51°11.324 2°25.218 15 13.1 10 23.7
2004-06-03 09:12:41 51°11.536 2°25.282 17.2 12.9 10 24
2004-06-03 09:13:41 51°11.746 2°25.351 20.3 12.9 13 24.7
2004-06-03 09:14:41 51°11.953 2°25.427 20.3 12.7 13 25.3
2004-06-03 09:15:41 51°12.159 2°25.5 19.9 12.7 13 25.9
2004-06-03 09:16:41 51°12.363 2°25.576 22.7 12.5 15 25.3
2004-06-03 09:17:41 51°12.566 2°25.658 21.9 12.6 14 26.5
2004-06-03 09:18:41 51°12.76 2°25.769 33.9 12.4 28 26.2
2004-06-03 09:19:40 51°12.908 2°25.986 49.2 12.2 46 26
2004-06-03 09:20:40 51°13.053 2°26.22 50.1 12.4 46 26.9
2004-06-03 09:21:41 51°13.201 2°26.461 50 12.5 46 26.8
2004-06-03 09:22:41 51°13.344 2°26.7 50.8 12.4 46 27.3
2004-06-03 09:23:41 51°13.487 2°26.942 50.2 12.5 46 27.1
2004-06-03 09:24:41 51°13.628 2°27.186 51.2 12.6 46 26.7
2004-06-03 09:25:41 51°13.77 2°27.433 51.1 12.6 47 26.6
2004-06-03 09:26:41 51°13.913 2°27.679 51.1 12.6 47 26.4
2004-06-03 09:27:41 51°14.054 2°27.924 51 12.6 47 26.7
2004-06-03 09:28:41 51°14.196 2°28.173 51.3 12.6 47 27.5
2004-06-03 09:29:41 51°14.339 2°28.422 51.3 12.6 47 28
2004-06-03 09:30:40 51°14.479 2°28.667 51.5 12.8 48 28.2
2004-06-03 09:31:41 51°14.627 2°28.92 51 12.9 47 28.2
2004-06-03 09:32:41 51°14.778 2°29.162 47.9 13 43 28.2
2004-06-03 09:33:41 51°14.935 2°29.399 48.4 12.9 43 28.3
2004-06-03 09:34:41 51°15.091 2°29.636 47.9 13 42 28.4
2004-06-03 09:35:41 51°15.249 2°29.874 48.6 13.1 44 28.1
2004-06-03 09:36:41 51°15.407 2°30.111 48.2 13.1 43 28.6
2004-06-03 09:37:41 51°15.567 2°30.35 48.6 13.2 43 28.4
2004-06-03 09:38:41 51°15.728 2°30.588 47.9 13.2 43 28.7
2004-06-03 09:39:41 51°15.89 2°30.83 48.1 13.3 43 28.8
2004-06-03 09:40:41 51°16.051 2°31.072 48.2 13.3 43 29.7
2004-06-03 09:41:41 51°16.213 2°31.315 48.6 13.4 42 28.9
2004-06-03 09:42:41 51°16.37 2°31.562 48.7 13.2 45 29.1
2004-06-03 09:43:41 51°16.527 2°31.806 48.6 13.2 45 27.4
2004-06-03 09:44:41 51°16.685 2°32.05 47.9 13.2 45 26.8
2004-06-03 09:45:41 51°16.842 2°32.295 48.6 13.3 46 27
2004-06-03 09:46:41 51°16.999 2°32.539 48 13.2 45 26.9
2004-06-03 09:47:41 51°17.157 2°32.784 48.9 13.2 44 27.1
2004-06-03 09:48:40 51°17.312 2°33.026 48.6 13.3 44 26.4
2004-06-03 09:49:41 51°17.473 2°33.278 48.6 13.4 44 28.4
2004-06-03 09:50:41 51°17.632 2°33.524 49 13.3 43 27.6
2004-06-03 09:51:40 51°17.79 2°33.767 48.1 13.4 44 27.6
2004-06-03 09:52:40 51°17.951 2°34.016 48.4 13.5 44 29.2
2004-06-03 09:53:41 51°18.122 2°34.259 44.7 13.5 40 28.9
2004-06-03 09:54:41 51°18.3 2°34.476 41.6 13.5 37 27
2004-06-03 09:55:41 51°18.478 2°34.696 42.2 13.5 39 20.9
2004-06-03 09:56:41 51°18.662 2°34.905 39.6 13.4 35 20.8
2004-06-03 09:57:41 51°18.849 2°35.097 36.8 13.3 32 20.8
2004-06-03 09:58:40 51°19.038 2°35.274 34.2 13.4 30 21.4
2004-06-03 09:59:40 51°19.23 2°35.453 34.8 13.3 31 22.7
2004-06-03 10:00:40 51°19.424 2°35.631 32.6 13.3 28 22.7
2004-06-03 10:01:41 51°19.629 2°35.779 25.4 13.3 20 21.7
2004-06-03 10:02:40 51°19.83 2°35.91 29.2 13.2 24 21.3
2004-06-03 10:03:41 51°20.031 2°36.068 30.5 13.3 26 21.9
2004-06-03 10:04:42 51°20.203 2°36.295 53.9 13.4 53 21.8
2004-06-03 10:05:41 51°20.287 2°36.621 76 13.7 73 23
2004-06-03 10:06:41 51°20.351 2°36.971 76.5 13.8 75 23.8
2004-06-03 10:07:41 51°20.398 2°37.33 82.4 13.9 81 24.2
2004-06-03 10:08:41 51°20.422 2°37.699 86.4 13.9 85 24.3
2004-06-03 10:09:41 51°20.415 2°38.072 95 14 93 24.5
2004-06-03 10:10:41 51°20.402 2°38.445 93.7 14.1 92 25.8
2004-06-03 10:11:41 51°20.393 2°38.818 94.3 14.1 92 25.1
2004-06-03 10:12:37 51°20.385 2°39.166 93.7 14.2 91 26.3
2004-06-03 10:13:41 51°20.378 2°39.568 94 14 92 26.7
2004-06-03 10:14:41 51°20.372 2°39.94 94.7 14.2 92 29
2004-06-03 10:15:41 51°20.368 2°40.313 93.9 14.1 91 29.2
2004-06-03 10:16:41 51°20.366 2°40.688 93.3 14.1 89 30.1
2004-06-03 10:17:41 51°20.367 2°41.067 93.9 14.3 90 26.9
2004-06-03 10:18:41 51°20.365 2°41.448 93.4 14.4 90 21.6
2004-06-03 10:19:41 51°20.363 2°41.83 92.7 14.4 91 21.3
2004-06-03 10:20:41 51°20.36 2°42.216 93.7 14.5 91 18.7
2004-06-03 10:21:40 51°20.357 2°42.594 92.8 14.4 90 24.7
2004-06-03 10:22:41 51°20.355 2°42.984 93.6 14.3 90 27
2004-06-03 10:23:41 51°20.353 2°43.363 93.3 14.3 91 28.2
2004-06-03 10:24:41 51°20.352 2°43.742 93.6 14.2 91 28.6
2004-06-03 10:25:41 51°20.353 2°44.117 93.6 14.1 90 29
2004-06-03 10:26:41 51°20.356 2°44.492 93 14.1 89 27.7
2004-06-03 10:27:41 51°20.361 2°44.868 93.2 14.2 89 26.9
2004-06-03 10:28:41 51°20.349 2°45.246 103.6 14.2 101 25.4
2004-06-03 10:29:41 51°20.294 2°45.614 108.1 14.3 103 22.9
2004-06-03 10:30:40 51°20.239 2°45.981 107.3 14.5 105 17.9
2004-06-03 10:31:40 51°20.184 2°46.362 106 14.9 102 15.3
2004-06-03 10:32:40 51°20.142 2°46.75 105.4 14.9 100 18.4
2004-06-03 10:33:41 51°20.097 2°47.142 104.7 14.7 102 21.6
2004-06-03 10:34:40 51°20.037 2°47.511 107.9 14.6 102 23.2
2004-06-03 10:35:40 51°19.966 2°47.883 114.6 14.7 112 24
2004-06-03 10:36:41 51°19.847 2°48.221 127 14.1 123 24.1
2004-06-03 10:37:47 51°19.693 2°48.552 132.7 14 127 22.4
2004-06-03 10:38:46 51°19.55 2°48.849 131.9 14.4 129 19.7
2004-06-03 10:39:46 51°19.412 2°49.157 131.4 14.5 126 16.6
2004-06-03 10:40:46 51°19.27 2°49.471 131.3 14.4 126 15.6
2004-06-03 10:41:46 51°19.122 2°49.775 136.7 14.5 131 13.1
2004-06-03 10:42:47 51°18.96 2°50.072 136.2 14.8 130 14.2
2004-06-03 10:43:47 51°18.805 2°50.37 135.7 14.4 131 16.4
2004-06-03 10:44:47 51°18.65 2°50.665 137.3 14.6 132 16.6
2004-06-03 10:45:47 51°18.493 2°50.959 138 14.5 133 16.1
2004-06-03 10:46:46 51°18.328 2°51.229 140.5 14.4 135 15.2
2004-06-03 10:47:46 51°18.161 2°51.505 140 14.5 134 13.8
2004-06-03 10:48:46 51°17.974 2°51.736 153.1 14.2 148 12.9
2004-06-03 10:49:47 51°17.778 2°51.955 151.3 14 145 12.7
2004-06-03 10:50:47 51°17.582 2°52.161 153.9 14 148 12.8
2004-06-03 10:51:47 51°17.378 2°52.347 157.4 14.2 151 12.8
2004-06-03 10:52:47 51°17.179 2°52.543 155.1 14 147 12.2
2004-06-03 10:53:47 51°16.977 2°52.735 156.4 14.1 148 12.2
2004-06-03 10:54:46 51°16.781 2°52.925 158.7 14.1 152 12.5
2004-06-03 10:55:44 51°16.588 2°53.115 154.6 13.9 146 14.2
2004-06-03 10:56:46 51°16.384 2°53.322 156.9 14 149 14.7
2004-06-03 10:57:46 51°16.187 2°53.52 156.5 14 148 14.6
2004-06-03 10:58:47 51°15.981 2°53.701 162.1 13.8 153 14.1
2004-06-03 10:59:46 51°15.773 2°53.826 169.2 13.7 161 13.8
2004-06-03 11:00:45 51°15.556 2°53.888 181.8 13.5 175 13.1
2004-06-03 11:01:45 51°15.333 2°53.928 180.6 13.6 172 12.4
2004-06-03 11:02:46 51°15.106 2°53.951 184.6 13.3 177 12
2004-06-03 11:03:46 51°14.884 2°53.963 185 13.4 177 12.2
2004-06-03 11:04:47 51°14.662 2°53.975 186.6 12.3 177 14
2004-06-03 11:05:47 51°14.532 2°54.021 171.5 5.9 151 13.2
2004-06-03 11:06:51 51°14.489 2°54.069 213.2 1.3 105 13
2004-06-03 11:07:56 51°14.492 2°54.097 240.2 1 72 13
2004-06-03 11:08:57 51°14.499 2°54.122 251.8 1 63 13.1
2004-06-03 11:09:57 51°14.508 2°54.145 262 1.1 58 13.6
2004-06-03 11:10:57 51°14.519 2°54.172 267.8 1.3 56 14.1
2004-06-03 11:11:57 51°14.531 2°54.202 272.6 1.4 60 14.4
2004-06-03 11:12:58 51°14.544 2°54.235 277.9 1.5 59 14.1
2004-06-03 11:14:01 51°14.558 2°54.272 282.4 1.6 61 14.1
2004-06-03 11:15:02 51°14.571 2°54.31 284.6 1.7 61 14
2004-06-03 11:16:02 51°14.584 2°54.349 288 1.6 63 14.1
2004-06-03 11:17:02 51°14.597 2°54.389 289.8 1.7 63 13.9
2004-06-03 11:18:07 51°14.611 2°54.434 290.4 1.7 64 13.3
2004-06-03 11:19:07 51°14.623 2°54.477 290.3 1.8 66 13.3
2004-06-03 11:20:07 51°14.635 2°54.521 287.7 1.8 68 13.1
2004-06-03 11:21:07 51°14.649 2°54.558 285.2 1.1 10 13
2004-06-03 11:22:07 51°14.631 2°54.386 251.9 10.2 249 13.3
2004-06-03 11:23:06 51°14.554 2°54.225 227.9 4.7 218 14.1
2004-06-03 11:24:07 51°14.509 2°54.193 219.4 2.1 190 14
2004-06-03 11:25:07 51°14.486 2°54.192 227.4 0.9 175 13.7
2004-06-03 11:26:07 51°14.48 2°54.195 243.1 0.1 118 13.2
2004-06-03 11:27:05 51°14.483 2°54.202 257.5 0.6 47 13.7
2004-06-03 11:28:09 51°14.494 2°54.216 269.7 1 40 14
2004-06-03 11:29:17 51°14.51 2°54.246 279.5 2.2 72 14
2004-06-03 11:30:17 51°14.521 2°54.321 268.8 2.9 74 14.1
2004-06-03 11:31:17 51°14.532 2°54.374 258 1.4 68 14.1
2004-06-03 11:32:15 51°14.538 2°54.369 266.3 1.6 287 14
2004-06-03 11:33:17 51°14.55 2°54.346 275.7 0.9 13 14.1
2004-06-03 11:34:22 51°14.567 2°54.365 293.1 1.3 39 14.1
2004-06-03 11:35:21 51°14.583 2°54.388 298.8 1.4 46 14
2004-06-03 11:36:22 51°14.6 2°54.417 300.6 1.5 50 13.8
2004-06-03 11:37:22 51°14.617 2°54.448 303.1 1.5 51 13.5
2004-06-03 11:38:22 51°14.632 2°54.481 305.8 1.6 53 13.4
2004-06-03 11:39:21 51°14.646 2°54.515 305.6 1.5 58 13.3
2004-06-03 11:40:22 51°14.66 2°54.553 301.8 1.6 63 13.1
2004-06-03 11:41:22 51°14.673 2°54.591 294 1.6 65 13
2004-06-03 11:42:22 51°14.684 2°54.63 283.9 1.6 65 13
2004-06-03 11:43:22 51°14.696 2°54.669 277.2 1.6 66 13.1
2004-06-03 11:44:22 51°14.707 2°54.707 270.2 1.6 67 12.9
2004-06-03 11:45:26 51°14.719 2°54.748 266.9 1.6 64 12.9
2004-06-03 11:46:27 51°14.727 2°54.763 265 2.6 270 12.7
2004-06-03 11:47:27 51°14.697 2°54.547 257 10.7 254 12.9
2004-06-03 11:48:27 51°14.622 2°54.28 243.8 11.1 237 13.9
2004-06-03 11:49:27 51°14.517 2°54.028 238.9 11.4 234 13.1
2004-06-03 11:50:27 51°14.409 2°53.783 239.5 11.4 235 13
2004-06-03 11:51:27 51°14.302 2°53.533 239.1 11.4 234 12.9
2004-06-03 11:52:27 51°14.196 2°53.284 239.6 11.3 234 13.2
2004-06-03 11:53:27 51°14.091 2°53.034 240.3 11.4 236 13.5
2004-06-03 11:54:27 51°13.983 2°52.784 240.7 11.4 236 13.6
2004-06-03 11:55:27 51°13.885 2°52.524 244.5 11.4 241 13.8
2004-06-03 11:56:26 51°13.821 2°52.328 255.4 5.3 257 14
2004-06-03 11:57:28 51°13.832 2°52.235 280.1 2.6 300 14.1
2004-06-03 11:58:27 51°13.821 2°52.154 224.2 4.8 199 14
2004-06-03 11:59:27 51°13.765 2°52.287 102.9 8.5 85 13.9
2004-06-03 12:00:26 51°13.848 2°52.568 69 14.4 63 13.6
2004-06-03 12:01:27 51°13.969 2°52.929 67.1 15.4 61 13.3
2004-06-03 12:02:27 51°14.085 2°53.291 71.7 15.3 66 13
2004-06-03 12:03:27 51°14.187 2°53.66 73.4 15.2 66 12.5
2004-06-03 12:04:26 51°14.265 2°54.035 80.5 15.3 73 12.2
2004-06-03 12:05:33 51°14.355 2°54.467 80 15.3 73 12.4
2004-06-03 12:06:34 51°14.402 2°54.855 98.5 13.2 94 13.6